Time;durP1;ratioP1;P1;durP2;ratioP2;P2;SDS_P1;SDS_P2;PMS_P1;PMS_P2;Temp;Humidity;BMP_temperature;BMP_pressure;BME280_temperature;BME280_humidity;BME280_pressure;Samples;Min_cycle;Max_cycle;Signal;HPM_P1;HPM_P2
2022/05/12 00:02:40;;;;;;;9.97;7.67;;;;;;;;;;6231702;28;20042;-58
2022/05/12 00:05:41;;;;;;;10.27;7.80;;;;;;;;;;6228998;28;20389;-59
2022/05/12 00:08:41;;;;;;;9.63;7.50;;;;;;;;;;6227976;28;20053;-59
2022/05/12 00:11:42;;;;;;;9.97;7.70;;;;;;;;;;6226907;28;20136;-59
2022/05/12 00:14:43;;;;;;;11.10;7.50;;;;;;;;;;6225788;28;21045;-59
2022/05/12 00:17:44;;;;;;;10.37;7.47;;;;;;;;;;6227697;28;20057;-60
2022/05/12 00:20:45;;;;;;;10.43;7.68;;;;;;;;;;6229011;28;20135;-57
2022/05/12 00:23:56;;;;;;;10.10;7.10;;;;;;;;;;6229492;28;20050;-59
2022/05/12 00:26:57;;;;;;;12.07;7.25;;;;;;;;;;6226200;28;20052;-59
2022/05/12 00:29:57;;;;;;;12.88;7.75;;;;;;;;;;6226566;28;20559;-56
2022/05/12 00:32:58;;;;;;;8.97;7.03;;;;;;;;;;6226637;28;20485;-58
2022/05/12 00:35:58;;;;;;;9.67;7.20;;;;;;;;;;6231074;28;20046;-60
2022/05/12 00:38:59;;;;;;;11.10;7.53;;;;;;;;;;6230047;28;20078;-60
2022/05/12 00:42:00;;;;;;;10.43;7.70;;;;;;;;;;6238909;28;20041;-59
2022/05/12 00:45:01;;;;;;;13.27;8.10;;;;;;;;;;6237029;28;20072;-59
2022/05/12 00:48:03;;;;;;;10.77;8.23;;;;;;;;;;6237974;28;20140;-59
2022/05/12 00:51:07;;;;;;;10.43;7.57;;;;;;;;;;6220940;28;20069;-58
2022/05/12 00:54:19;;;;;;;12.05;7.82;;;;;;;;;;6208314;28;20086;-55
2022/05/12 00:57:33;;;;;;;13.18;8.05;;;;;;;;;;6228075;28;20092;-57
2022/05/12 01:00:33;;;;;;;9.55;8.20;;;;;;;;;;6227414;28;20058;-56
2022/05/12 01:03:38;;;;;;;12.30;7.83;;;;;;;;;;6236252;28;20052;-58
2022/05/12 01:06:38;;;;;;;11.00;8.02;;;;;;;;;;6239773;28;20053;-57
2022/05/12 01:09:39;;;;;;;9.73;7.67;;;;;;;;;;6225973;28;20162;-59
2022/05/12 01:12:44;;;;;;;11.10;7.43;;;;;;;;;;6223996;28;20111;-60
2022/05/12 01:15:50;;;;;;;10.15;7.82;;;;;;;;;;6226909;28;20046;-58
2022/05/12 01:18:51;;;;;;;9.75;7.80;;;;;;;;;;6212054;28;20054;-58
2022/05/12 01:21:53;;;;;;;10.33;7.83;;;;;;;;;;6228812;28;20493;-56
2022/05/12 01:24:53;;;;;;;11.13;8.13;;;;;;;;;;6231151;28;20053;-59
2022/05/12 01:27:54;;;;;;;9.05;7.35;;;;;;;;;;6226184;28;20049;-58
2022/05/12 01:30:55;;;;;;;10.73;7.63;;;;;;;;;;6223476;28;20525;-59
2022/05/12 01:33:56;;;;;;;12.15;8.38;;;;;;;;;;6226756;28;20077;-59
2022/05/12 01:36:57;;;;;;;11.60;7.30;;;;;;;;;;6226153;28;20067;-58
2022/05/12 01:39:58;;;;;;;10.52;7.63;;;;;;;;;;6229215;28;20060;-59
2022/05/12 01:42:58;;;;;;;10.47;8.00;;;;;;;;;;6228582;28;20552;-58
2022/05/12 01:46:00;;;;;;;9.77;7.03;;;;;;;;;;6225957;28;20057;-59
2022/05/12 01:49:00;;;;;;;13.13;7.72;;;;;;;;;;6225820;28;20148;-59
2022/05/12 01:52:02;;;;;;;10.30;6.90;;;;;;;;;;6225481;28;20049;-60
2022/05/12 01:55:03;;;;;;;;;;;;;;;;;;6228777;28;20057;-59
2022/05/12 01:58:05;;;;;;;9.40;7.00;;;;;;;;;;6224542;28;20387;-60
2022/05/12 02:01:06;;;;;;;8.95;6.72;;;;;;;;;;6209969;28;20548;-60
2022/05/12 02:04:07;;;;;;;9.75;7.03;;;;;;;;;;6232566;28;20064;-59
2022/05/12 02:07:08;;;;;;;10.20;6.83;;;;;;;;;;6225593;28;20496;-59
2022/05/12 02:10:13;;;;;;;9.60;6.68;;;;;;;;;;6225792;28;20053;-60
2022/05/12 02:13:17;;;;;;;9.10;7.05;;;;;;;;;;6225931;28;20069;-58
2022/05/12 02:16:18;;;;;;;9.25;6.40;;;;;;;;;;6228000;28;20089;-58
2022/05/12 02:19:19;;;;;;;8.67;7.07;;;;;;;;;;6228644;28;20077;-59
2022/05/12 02:22:20;;;;;;;11.50;6.90;;;;;;;;;;6224990;28;20057;-55
2022/05/12 02:25:21;;;;;;;13.50;6.63;;;;;;;;;;6226692;28;20073;-59
2022/05/12 02:28:22;;;;;;;11.73;6.57;;;;;;;;;;6225131;28;20444;-58
2022/05/12 02:31:23;;;;;;;10.55;7.03;;;;;;;;;;6226765;28;20112;-59
2022/05/12 02:34:23;;;;;;;13.20;7.25;;;;;;;;;;6227779;28;20053;-59
2022/05/12 02:37:24;;;;;;;9.40;7.00;;;;;;;;;;6229459;28;20062;-59
2022/05/12 02:40:28;;;;;;;8.57;6.28;;;;;;;;;;6225434;28;20053;-56
2022/05/12 02:43:31;;;;;;;9.68;7.13;;;;;;;;;;6220720;28;20854;-58
2022/05/12 02:46:32;;;;;;;10.65;6.95;;;;;;;;;;6233661;28;20073;-59
2022/05/12 02:49:33;;;;;;;8.77;6.68;;;;;;;;;;6226936;28;20069;-60
2022/05/12 02:52:34;;;;;;;10.15;7.10;;;;;;;;;;6226269;28;20049;-59
2022/05/12 02:55:34;;;;;;;10.53;6.63;;;;;;;;;;6226404;28;20501;-56
2022/05/12 02:58:35;;;;;;;12.65;7.07;;;;;;;;;;6227452;28;20043;-59
2022/05/12 03:01:36;;;;;;;9.97;6.73;;;;;;;;;;6221266;28;20100;-58
2022/05/12 03:04:36;;;;;;;11.82;6.70;;;;;;;;;;6223452;28;20143;-59
2022/05/12 03:07:37;;;;;;;9.45;6.97;;;;;;;;;;6226499;28;20049;-59
2022/05/12 03:10:38;;;;;;;10.27;6.72;;;;;;;;;;6227357;28;20080;-59
2022/05/12 03:13:38;;;;;;;9.70;6.73;;;;;;;;;;6228218;28;20628;-56
2022/05/12 03:16:39;;;;;;;11.05;6.68;;;;;;;;;;6229608;28;20065;-57
2022/05/12 03:19:40;;;;;;;9.93;7.20;;;;;;;;;;6224139;28;20136;-60
2022/05/12 03:22:41;;;;;;;9.37;6.90;;;;;;;;;;6221729;28;20046;-59
2022/05/12 03:25:45;;;;;;;9.25;7.30;;;;;;;;;;6224807;28;20045;-59
2022/05/12 03:28:46;;;;;;;9.40;7.03;;;;;;;;;;6226802;28;20057;-56
2022/05/12 03:31:46;;;;;;;10.38;7.70;;;;;;;;;;6227034;28;20497;-59
2022/05/12 03:34:47;;;;;;;9.82;7.40;;;;;;;;;;6228652;28;20068;-60
2022/05/12 03:37:47;;;;;;;10.73;7.20;;;;;;;;;;6227232;28;20080;-57
2022/05/12 03:40:48;;;;;;;11.68;7.28;;;;;;;;;;6223098;28;20053;-56
2022/05/12 03:47:08;;;;;;;8.63;6.88;;;;;;;;;;6224864;28;20049;-57
2022/05/12 03:50:13;;;;;;;8.40;6.78;;;;;;;;;;6233517;28;20040;-59
2022/05/12 03:53:14;;;;;;;12.10;6.75;;;;;;;;;;6230261;28;20049;-56
2022/05/12 03:56:14;;;;;;;9.65;6.32;;;;;;;;;;6234339;28;20360;-58
2022/05/12 03:59:15;;;;;;;10.40;6.88;;;;;;;;;;6230957;28;20053;-59
2022/05/12 04:02:18;;;;;;;11.93;7.30;;;;;;;;;;6230855;28;20140;-58
2022/05/12 04:05:20;;;;;;;15.07;7.07;;;;;;;;;;6236251;28;20381;-58
2022/05/12 04:08:21;;;;;;;13.40;6.85;;;;;;;;;;6238325;28;20119;-57
2022/05/12 04:11:23;;;;;;;12.30;7.10;;;;;;;;;;6238796;28;20103;-57
2022/05/12 04:14:23;;;;;;;10.30;6.87;;;;;;;;;;6232766;28;20133;-59
2022/05/12 04:17:24;;;;;;;12.07;6.75;;;;;;;;;;6226573;28;20428;-61
2022/05/12 04:20:26;;;;;;;12.32;6.82;;;;;;;;;;6227703;28;20526;-59
2022/05/12 04:23:27;;;;;;;12.23;7.10;;;;;;;;;;6235055;28;20056;-61
2022/05/12 04:26:28;;;;;;;12.07;6.78;;;;;;;;;;6239696;28;20049;-58
2022/05/12 04:29:28;;;;;;;11.60;7.35;;;;;;;;;;6238901;28;20645;-59
2022/05/12 04:32:30;;;;;;;11.63;6.43;;;;;;;;;;6234948;28;20068;-59
2022/05/12 04:35:31;;;;;;;12.27;6.82;;;;;;;;;;6230655;28;20080;-57
2022/05/12 04:38:32;;;;;;;10.48;6.88;;;;;;;;;;6228320;28;20571;-57
2022/05/12 04:41:32;;;;;;;11.40;7.43;;;;;;;;;;6234989;28;20346;-59
2022/05/12 04:44:33;;;;;;;9.25;6.70;;;;;;;;;;6227525;28;20461;-60
2022/05/12 04:47:35;;;;;;;13.82;7.45;;;;;;;;;;6230789;28;20046;-58
2022/05/12 04:50:40;;;;;;;11.60;7.35;;;;;;;;;;6229386;28;20073;-61
2022/05/12 04:53:40;;;;;;;14.07;8.55;;;;;;;;;;6228532;28;20077;-57
2022/05/12 04:56:41;;;;;;;10.53;7.30;;;;;;;;;;6220316;28;20046;-58
2022/05/12 04:59:42;;;;;;;12.70;8.50;;;;;;;;;;6229313;28;20081;-58
2022/05/12 05:02:43;;;;;;;9.85;6.50;;;;;;;;;;6233675;28;20792;-58
2022/05/12 05:05:44;;;;;;;10.33;7.20;;;;;;;;;;6233501;28;20053;-59
2022/05/12 05:08:45;;;;;;;10.40;6.53;;;;;;;;;;6230002;28;20042;-59
2022/05/12 05:11:46;;;;;;;13.90;7.30;;;;;;;;;;6229908;28;20092;-59
2022/05/12 05:14:47;;;;;;;9.67;6.73;;;;;;;;;;6226469;28;20475;-60
2022/05/12 05:17:47;;;;;;;12.90;7.33;;;;;;;;;;6226143;28;20059;-59
2022/05/12 05:20:49;;;;;;;12.63;7.40;;;;;;;;;;6226503;28;20041;-59
2022/05/12 05:23:49;;;;;;;10.95;6.90;;;;;;;;;;6227274;28;20049;-60
2022/05/12 05:26:50;;;;;;;8.80;6.80;;;;;;;;;;6230080;28;20077;-58
2022/05/12 05:29:51;;;;;;;14.20;7.47;;;;;;;;;;6233216;28;20514;-60
2022/05/12 05:32:51;;;;;;;11.23;7.53;;;;;;;;;;6233797;28;20055;-58
2022/05/12 05:35:52;;;;;;;12.00;7.80;;;;;;;;;;6238875;28;20059;-60
2022/05/12 05:38:53;;;;;;;12.33;6.90;;;;;;;;;;6229693;28;20053;-59
2022/05/12 05:41:59;;;;;;;9.50;6.80;;;;;;;;;;6240085;28;20435;-60
2022/05/12 05:44:59;;;;;;;12.60;6.97;;;;;;;;;;6230055;28;20060;-60
2022/05/12 05:48:04;;;;;;;12.90;6.73;;;;;;;;;;6229077;28;20746;-58
2022/05/12 05:54:24;;;;;;;9.70;6.80;;;;;;;;;;6227711;28;20591;-61
2022/05/12 05:57:29;;;;;;;10.33;7.17;;;;;;;;;;6226354;28;20057;-59
2022/05/12 06:00:34;;;;;;;12.65;7.10;;;;;;;;;;6242123;28;20077;-60
2022/05/12 06:03:34;;;;;;;10.68;7.05;;;;;;;;;;6234130;28;20073;-62
2022/05/12 06:06:35;;;;;;;12.53;7.10;;;;;;;;;;6228118;28;20061;-58
2022/05/12 06:09:36;;;;;;;13.07;7.73;;;;;;;;;;6227269;28;20156;-59
2022/05/12 06:12:38;;;;;;;15.57;7.87;;;;;;;;;;6227177;28;20443;-60
2022/05/12 06:15:39;;;;;;;;;;;;;;;;;;6220892;28;20045;-60
2022/05/12 06:18:41;;;;;;;16.13;7.30;;;;;;;;;;6223109;28;20015;-56
2022/05/12 06:21:42;;;;;;;10.65;7.28;;;;;;;;;;6224281;28;20097;-59
2022/05/12 06:24:43;;;;;;;12.43;7.40;;;;;;;;;;6227459;28;20104;-57
2022/05/12 06:27:45;;;;;;;14.20;7.65;;;;;;;;;;6228667;28;20493;-58
2022/05/12 06:30:46;;;;;;;16.08;7.50;;;;;;;;;;6228008;28;20052;-59
2022/05/12 06:33:46;;;;;;;14.53;7.50;;;;;;;;;;6223872;28;20140;-60
2022/05/12 06:36:47;;;;;;;15.47;7.40;;;;;;;;;;6224978;28;20136;-58
2022/05/12 06:39:48;;;;;;;15.03;7.40;;;;;;;;;;6227358;28;20425;-59
2022/05/12 06:42:49;;;;;;;11.05;7.10;;;;;;;;;;6227075;28;20046;-56
2022/05/12 06:45:50;;;;;;;13.63;7.30;;;;;;;;;;6226802;28;20061;-58
2022/05/12 06:48:52;;;;;;;12.67;7.17;;;;;;;;;;6227532;28;20546;-59
2022/05/12 06:51:52;;;;;;;15.43;7.53;;;;;;;;;;6225606;28;20045;-57
2022/05/12 06:54:53;;;;;;;13.07;7.40;;;;;;;;;;6224263;28;20089;-59
2022/05/12 06:57:54;;;;;;;13.47;7.20;;;;;;;;;;6226140;28;20172;-58
2022/05/12 07:00:55;;;;;;;;;;;;;;;;;;6229989;28;20136;-59
2022/05/12 07:03:58;;;;;;;12.40;7.20;;;;;;;;;;6229199;28;19944;-57
2022/05/12 07:06:59;;;;;;;14.88;7.22;;;;;;;;;;6228700;28;20628;-58
2022/05/12 07:10:00;;;;;;;16.13;7.00;;;;;;;;;;6224416;28;20046;-59
2022/05/12 07:13:00;;;;;;;12.10;7.30;;;;;;;;;;6208073;28;20523;-61
2022/05/12 07:16:03;;;;;;;16.63;7.60;;;;;;;;;;6224521;28;20501;-59
2022/05/12 07:19:04;;;;;;;11.77;7.05;;;;;;;;;;6224658;28;20054;-59
2022/05/12 07:28:43;;;;;;;20.00;7.35;;;;;;;;;;6231740;28;20176;-58
2022/05/12 07:31:44;;;;;;;14.95;7.88;;;;;;;;;;6232354;28;20076;-58
2022/05/12 07:34:45;;;;;;;13.00;7.32;;;;;;;;;;6229706;28;20044;-59
2022/05/12 07:37:45;;;;;;;10.23;6.77;;;;;;;;;;6228424;28;20485;-59
2022/05/12 07:40:46;;;;;;;10.60;6.37;;;;;;;;;;6226608;28;20120;-59
2022/05/12 07:43:47;;;;;;;12.53;7.20;;;;;;;;;;6232952;28;20457;-59
2022/05/12 07:46:48;;;;;;;14.48;6.88;;;;;;;;;;6230154;28;20057;-58
2022/05/12 07:49:48;;;;;;;11.43;7.22;;;;;;;;;;6226774;28;20068;-59
2022/05/12 07:52:49;;;;;;;16.37;6.80;;;;;;;;;;6228838;28;20085;-59
2022/05/12 07:55:50;;;;;;;11.83;6.70;;;;;;;;;;6227233;28;20068;-59
2022/05/12 07:58:52;;;;;;;16.20;7.10;;;;;;;;;;6232083;28;20149;-59
2022/05/12 08:01:52;;;;;;;16.02;6.40;;;;;;;;;;6229577;28;20503;-58
2022/05/12 08:04:53;;;;;;;13.67;6.33;;;;;;;;;;6231732;28;20050;-60
2022/05/12 08:07:55;;;;;;;10.27;5.77;;;;;;;;;;6228921;28;20140;-59
2022/05/12 08:10:55;;;;;;;11.50;6.07;;;;;;;;;;6224998;28;20774;-59
2022/05/12 08:13:56;;;;;;;11.95;6.05;;;;;;;;;;6226843;28;20085;-58
2022/05/12 08:16:57;;;;;;;10.40;5.73;;;;;;;;;;6226448;28;20403;-58
2022/05/12 08:19:58;;;;;;;10.70;5.90;;;;;;;;;;6232294;28;20116;-60
2022/05/12 08:22:58;;;;;;;11.43;6.72;;;;;;;;;;6231280;28;20042;-61
2022/05/12 08:25:59;;;;;;;10.00;5.70;;;;;;;;;;6229734;28;20053;-60
2022/05/12 08:28:59;;;;;;;8.70;5.80;;;;;;;;;;6228904;28;20139;-58
2022/05/12 08:32:00;;;;;;;10.40;5.80;;;;;;;;;;6228844;28;21037;-56
2022/05/12 08:35:01;;;;;;;9.70;5.97;;;;;;;;;;6228031;28;20099;-58
2022/05/12 08:38:02;;;;;;;13.75;5.80;;;;;;;;;;6228703;28;20042;-59
2022/05/12 08:41:12;;;;;;;12.65;6.20;;;;;;;;;;6230726;28;20141;-57
2022/05/12 08:44:16;;;;;;;11.85;5.57;;;;;;;;;;6231462;28;20136;-59
2022/05/12 08:47:23;;;;;;;13.40;6.07;;;;;;;;;;6210265;28;20052;-58
2022/05/12 08:50:27;;;;;;;9.10;5.60;;;;;;;;;;6227597;28;20151;-59
2022/05/12 08:53:36;;;;;;;8.63;5.60;;;;;;;;;;6227220;28;20132;-59
2022/05/12 08:56:36;;;;;;;11.20;6.15;;;;;;;;;;6228698;28;20053;-60
2022/05/12 08:59:38;;;;;;;12.77;5.80;;;;;;;;;;6229013;28;20527;-59
2022/05/12 09:02:53;;;;;;;11.43;5.72;;;;;;;;;;6232899;28;20046;-60
2022/05/12 09:06:02;;;;;;;9.82;5.70;;;;;;;;;;6231801;28;20452;-59
2022/05/12 09:09:25;;;;;;;10.90;5.40;;;;;;;;;;6229856;28;20463;-59
2022/05/12 09:12:31;;;;;;;8.52;5.28;;;;;;;;;;6227148;28;20519;-57
2022/05/12 09:15:38;;;;;;;8.30;4.90;;;;;;;;;;6224407;28;20053;-59
2022/05/12 09:18:40;;;;;;;10.82;5.13;;;;;;;;;;6224831;28;20071;-61
2022/05/12 09:21:41;;;;;;;10.20;5.53;;;;;;;;;;6224494;28;20072;-59
2022/05/12 09:24:42;;;;;;;10.07;5.73;;;;;;;;;;6229823;28;20140;-59
2022/05/12 09:27:44;;;;;;;10.20;5.57;;;;;;;;;;6228711;28;20053;-57
2022/05/12 09:30:46;;;;;;;6.95;5.60;;;;;;;;;;6225842;28;20049;-58
2022/05/12 09:33:51;;;;;;;11.45;5.13;;;;;;;;;;6226462;28;20049;-58
2022/05/12 09:36:52;;;;;;;10.60;5.20;;;;;;;;;;6226625;28;20052;-59
2022/05/12 09:39:55;;;;;;;10.85;5.25;;;;;;;;;;6226397;28;20140;-60
2022/05/12 09:43:00;;;;;;;8.00;5.13;;;;;;;;;;6228416;28;20432;-59
2022/05/12 09:46:29;;;;;;;12.65;5.13;;;;;;;;;;6228549;28;20086;-57
2022/05/12 09:49:34;;;;;;;11.43;5.07;;;;;;;;;;6229185;28;20068;-57
2022/05/12 09:52:37;;;;;;;8.18;4.75;;;;;;;;;;6228485;28;20061;-59
2022/05/12 09:55:55;;;;;;;13.52;4.80;;;;;;;;;;6224802;28;20140;-60
2022/05/12 09:59:14;;;;;;;11.77;4.85;;;;;;;;;;6225373;28;20061;-59
2022/05/12 10:07:53;;;;;;;6.88;4.57;;;;;;;;;;6225634;28;20045;-59
2022/05/12 10:09:19;;;;;;;13.07;4.80;;;;;;;;;;6228647;28;20608;-60
2022/05/12 10:12:31;;;;;;;10.23;5.65;;;;;;;;;;6225564;28;20060;-59
2022/05/12 10:15:36;;;;;;;9.52;5.70;;;;;;;;;;6226821;28;20509;-60
2022/05/12 10:18:44;;;;;;;11.82;5.75;;;;;;;;;;6226147;28;20525;-60
2022/05/12 10:22:05;;;;;;;12.55;5.15;;;;;;;;;;6227730;28;20068;-57
2022/05/12 10:25:42;;;;;;;8.75;5.10;;;;;;;;;;6229210;28;20157;-58
2022/05/12 10:28:52;;;;;;;10.02;5.28;;;;;;;;;;6227237;28;20105;-58
2022/05/12 10:31:59;;;;;;;8.55;4.85;;;;;;;;;;6225441;28;20511;-60
2022/05/12 10:35:09;;;;;;;10.43;5.03;;;;;;;;;;6224378;28;20132;-60
2022/05/12 10:38:19;;;;;;;10.82;5.40;;;;;;;;;;6224275;28;20076;-60
2022/05/12 10:41:26;;;;;;;8.30;5.10;;;;;;;;;;6229934;28;20042;-56
2022/05/12 10:44:44;;;;;;;10.50;5.38;;;;;;;;;;6226793;28;20080;-59
2022/05/12 10:47:48;;;;;;;9.75;5.50;;;;;;;;;;6227376;28;20038;-59
2022/05/12 10:51:26;;;;;;;8.98;5.18;;;;;;;;;;6229809;28;20050;-58
2022/05/12 10:54:47;;;;;;;7.47;5.03;;;;;;;;;;6228569;28;20057;-57
2022/05/12 10:58:19;;;;;;;6.72;5.07;;;;;;;;;;6228593;28;20081;-60
2022/05/12 11:01:20;;;;;;;9.55;5.15;;;;;;;;;;6227151;28;20394;-58
2022/05/12 11:04:45;;;;;;;8.27;4.90;;;;;;;;;;6231453;28;20045;-61
2022/05/12 11:07:54;;;;;;;17.00;3.95;;;;;;;;;;6231448;28;20064;-60
2022/05/12 11:11:15;;;;;;;15.10;4.32;;;;;;;;;;6229452;28;20096;-59
2022/05/12 11:14:21;;;;;;;11.83;3.97;;;;;;;;;;6228359;28;20242;-58
2022/05/12 11:17:36;;;;;;;9.90;3.47;;;;;;;;;;6227891;28;20053;-60
2022/05/12 11:20:40;;;;;;;10.25;3.97;;;;;;;;;;6229075;28;20049;-60
2022/05/12 11:23:44;;;;;;;10.70;3.58;;;;;;;;;;6230196;28;20101;-59
2022/05/12 11:27:03;;;;;;;11.52;4.30;;;;;;;;;;6232892;28;20085;-60
2022/05/12 11:30:22;;;;;;;14.50;4.40;;;;;;;;;;6233077;28;20050;-58
2022/05/12 11:33:28;;;;;;;11.15;3.80;;;;;;;;;;6234463;28;20065;-58
2022/05/12 11:36:50;;;;;;;12.90;4.45;;;;;;;;;;6228400;28;20081;-60
2022/05/12 11:39:54;;;;;;;;;;;;;;;;;;6227833;28;20049;-57
2022/05/12 11:46:47;;;;;;;10.40;4.25;;;;;;;;;;6226902;28;20049;-57
2022/05/12 11:50:08;;;;;;;11.68;4.30;;;;;;;;;;6226739;28;20080;-58
2022/05/12 11:53:23;;;;;;;9.60;4.30;;;;;;;;;;6231685;28;20108;-59
2022/05/12 11:56:42;;;;;;;15.20;4.50;;;;;;;;;;6226627;28;20476;-57
2022/05/12 11:59:48;;;;;;;15.05;5.03;;;;;;;;;;6230935;28;20058;-56
2022/05/12 12:02:48;;;;;;;17.83;5.05;;;;;;;;;;6229967;28;20065;-58
2022/05/12 12:05:49;;;;;;;13.73;5.27;;;;;;;;;;6228915;28;20057;-55
2022/05/12 12:08:50;;;;;;;11.37;5.03;;;;;;;;;;6227897;28;20188;-60
2022/05/12 12:11:50;;;;;;;13.57;5.57;;;;;;;;;;6224967;28;20465;-56
2022/05/12 12:14:57;;;;;;;8.07;5.00;;;;;;;;;;6223536;28;20046;-58
2022/05/12 12:18:00;;;;;;;14.20;5.32;;;;;;;;;;6225412;28;20449;-59
2022/05/12 12:21:38;;;;;;;11.98;5.20;;;;;;;;;;6232712;28;20057;-58
2022/05/12 12:24:48;;;;;;;11.48;5.43;;;;;;;;;;6229700;28;20141;-58
2022/05/12 12:27:52;;;;;;;12.63;5.50;;;;;;;;;;6229885;28;20445;-59
2022/05/12 12:30:55;;;;;;;10.50;5.50;;;;;;;;;;6231889;28;20924;-57
2022/05/12 12:34:14;;;;;;;11.88;5.85;;;;;;;;;;6228417;28;20099;-60
2022/05/12 12:38:01;;;;;;;14.68;6.65;;;;;;;;;;6226675;28;20055;-60
2022/05/12 12:41:02;;;;;;;19.23;6.50;;;;;;;;;;6219860;28;20049;-58
2022/05/12 12:44:23;;;;;;;12.60;5.27;;;;;;;;;;6227044;28;20049;-59
2022/05/12 15:27:08;;;;;;;9.25;3.13;;;;;;;;;;6272536;27;20407;-56
2022/05/12 15:30:12;;;;;;;8.63;3.05;;;;;;;;;;6273378;28;20064;-58
2022/05/12 15:33:12;;;;;;;7.55;2.67;;;;;;;;;;6276354;28;20083;-58
2022/05/12 15:36:31;;;;;;;7.37;2.87;;;;;;;;;;6275092;28;20774;-61
2022/05/12 15:39:32;;;;;;;9.60;3.20;;;;;;;;;;6301732;28;20616;-59
2022/05/12 15:42:33;;;;;;;5.50;2.85;;;;;;;;;;6272607;28;20556;-59
2022/05/12 15:45:33;;;;;;;7.73;2.90;;;;;;;;;;6272182;28;20045;-58
2022/05/12 15:48:34;;;;;;;7.70;2.87;;;;;;;;;;6273050;28;20053;-59
2022/05/12 15:51:34;;;;;;;9.87;3.33;;;;;;;;;;6272506;28;20462;-58
2022/05/12 15:54:35;;;;;;;7.60;2.77;;;;;;;;;;6272457;28;21229;-60
2022/05/12 15:57:36;;;;;;;8.83;2.83;;;;;;;;;;6273918;28;20053;-59
2022/05/12 16:00:40;;;;;;;13.83;2.73;;;;;;;;;;6271390;28;20103;-61
2022/05/12 16:03:41;;;;;;;8.25;2.70;;;;;;;;;;6272990;28;20052;-58
2022/05/12 16:06:42;;;;;;;8.73;2.47;;;;;;;;;;6278379;28;20138;-59
2022/05/12 16:09:42;;;;;;;8.67;2.83;;;;;;;;;;6273681;28;20163;-56
2022/05/12 16:16:15;;;;;;;7.85;2.55;;;;;;;;;;6274165;28;20091;-58
2022/05/12 16:19:16;;;;;;;6.05;2.60;;;;;;;;;;6274076;28;20070;-58
2022/05/12 16:22:17;;;;;;;10.57;2.80;;;;;;;;;;6285509;28;20123;-58
2022/05/12 16:25:21;;;;;;;5.82;2.58;;;;;;;;;;6277583;28;20151;-59
2022/05/12 16:28:28;;;;;;;10.23;2.88;;;;;;;;;;6265646;28;20123;-57
2022/05/12 16:31:29;;;;;;;6.75;2.78;;;;;;;;;;6268046;28;20044;-57
2022/05/12 16:34:30;;;;;;;8.73;2.80;;;;;;;;;;6263115;28;20128;-58
2022/05/12 16:37:33;;;;;;;8.57;3.00;;;;;;;;;;6264364;28;20056;-59
2022/05/12 16:40:34;;;;;;;8.63;2.60;;;;;;;;;;6263977;28;20145;-58
2022/05/12 16:43:35;;;;;;;6.73;2.47;;;;;;;;;;6264255;28;20049;-56
2022/05/12 16:46:36;;;;;;;7.63;2.80;;;;;;;;;;6261994;28;20525;-56
2022/05/12 16:49:39;;;;;;;6.87;2.30;;;;;;;;;;6264150;28;20304;-58
2022/05/12 16:52:39;;;;;;;6.93;2.63;;;;;;;;;;6261940;28;20555;-58
2022/05/12 16:55:40;;;;;;;7.70;3.10;;;;;;;;;;6266734;28;20099;-58
2022/05/12 16:58:41;;;;;;;8.20;2.40;;;;;;;;;;6259012;28;20048;-55
2022/05/12 17:01:41;;;;;;;7.50;2.70;;;;;;;;;;6262440;28;20045;-58
2022/05/12 17:04:42;;;;;;;5.50;2.33;;;;;;;;;;6267466;28;20105;-54
2022/05/12 17:07:43;;;;;;;9.10;2.90;;;;;;;;;;6264664;28;20064;-57
2022/05/12 17:10:47;;;;;;;7.22;2.75;;;;;;;;;;6261043;28;20787;-57
2022/05/12 17:13:47;;;;;;;8.25;2.30;;;;;;;;;;6264467;28;20073;-59
2022/05/12 17:16:49;;;;;;;9.73;3.60;;;;;;;;;;6264346;28;20053;-53
2022/05/12 17:19:50;;;;;;;7.93;2.40;;;;;;;;;;6252200;28;20110;-58
2022/05/12 17:22:50;;;;;;;12.95;3.70;;;;;;;;;;6246056;28;20076;-58
2022/05/12 17:25:51;;;;;;;12.67;5.60;;;;;;;;;;6254737;28;20059;-53
2022/05/12 17:28:52;;;;;;;6.37;2.57;;;;;;;;;;6252803;28;20286;-58
2022/05/12 17:31:52;;;;;;;11.30;3.17;;;;;;;;;;6258051;28;20872;-59
2022/05/12 17:34:53;;;;;;;8.63;2.00;;;;;;;;;;6251036;28;20736;-55
2022/05/12 17:37:55;;;;;;;7.65;2.30;;;;;;;;;;6256823;28;20144;-56
2022/05/12 17:40:57;;;;;;;8.75;2.38;;;;;;;;;;6248331;28;20143;-54
2022/05/12 17:44:01;;;;;;;8.15;2.85;;;;;;;;;;6259072;28;20052;-54
2022/05/12 17:47:04;;;;;;;10.23;2.53;;;;;;;;;;6262737;28;20144;-50
2022/05/12 17:50:06;;;;;;;5.88;2.50;;;;;;;;;;6261135;28;21457;-57
2022/05/12 17:53:06;;;;;;;8.63;2.40;;;;;;;;;;6268115;28;20064;-59
2022/05/12 17:56:07;;;;;;;6.73;2.33;;;;;;;;;;6262262;28;20419;-60
2022/05/12 17:59:08;;;;;;;11.23;2.80;;;;;;;;;;6256497;28;20049;-58
2022/05/12 18:02:08;;;;;;;7.97;2.37;;;;;;;;;;6264468;28;20210;-59
2022/05/12 18:05:11;;;;;;;6.10;2.20;;;;;;;;;;6266811;28;20094;-59
2022/05/12 18:08:17;;;;;;;7.82;2.22;;;;;;;;;;6259108;28;20849;-55
2022/05/12 18:11:19;;;;;;;5.90;2.33;;;;;;;;;;6262247;28;20049;-55
2022/05/12 18:14:19;;;;;;;5.93;2.35;;;;;;;;;;6265109;28;21402;-59
2022/05/12 18:17:21;;;;;;;5.47;2.63;;;;;;;;;;6258112;28;20045;-54
2022/05/12 18:20:23;;;;;;;9.60;2.78;;;;;;;;;;6258633;28;20186;-53
2022/05/12 18:23:24;;;;;;;6.90;2.75;;;;;;;;;;6261205;28;20059;-52
2022/05/12 18:26:25;;;;;;;10.87;2.70;;;;;;;;;;6265051;28;20507;-54
2022/05/12 18:29:26;;;;;;;12.02;2.47;;;;;;;;;;6259136;28;20044;-52
2022/05/12 18:32:27;;;;;;;7.80;2.73;;;;;;;;;;6265860;28;20518;-57
2022/05/12 18:35:28;;;;;;;11.73;2.80;;;;;;;;;;6258738;28;20155;-54
2022/05/12 18:38:29;;;;;;;;;;;;;;;;;;6257891;28;20103;-54
2022/05/12 18:41:32;;;;;;;9.93;2.92;;;;;;;;;;6262436;28;20283;-53
2022/05/12 18:44:33;;;;;;;7.55;2.50;;;;;;;;;;6261183;28;20498;-55
2022/05/12 18:47:34;;;;;;;7.80;3.17;;;;;;;;;;6260127;28;20055;-55
2022/05/12 18:50:35;;;;;;;9.05;4.13;;;;;;;;;;6257741;28;20070;-56
2022/05/12 18:53:36;;;;;;;6.93;3.20;;;;;;;;;;6261108;28;20428;-53
2022/05/12 18:56:37;;;;;;;11.35;3.72;;;;;;;;;;6256771;28;20076;-53
2022/05/12 18:59:37;;;;;;;7.13;3.53;;;;;;;;;;6255077;28;20040;-57
2022/05/12 19:02:38;;;;;;;13.70;4.97;;;;;;;;;;6261612;28;21041;-55
2022/05/12 19:05:40;;;;;;;9.63;4.13;;;;;;;;;;6259651;28;20044;-56
2022/05/12 19:08:42;;;;;;;19.40;7.78;;;;;;;;;;6256100;28;20052;-58
2022/05/12 19:11:43;;;;;;;15.93;6.45;;;;;;;;;;6259608;28;20590;-57
2022/05/12 19:14:44;;;;;;;18.70;8.73;;;;;;;;;;6256379;28;20059;-54
2022/05/12 19:18:04;;;;;;;15.73;8.27;;;;;;;;;;6258379;28;20055;-51
2022/05/12 19:21:05;;;;;;;15.43;7.25;;;;;;;;;;6256951;28;20102;-52
2022/05/12 19:24:05;;;;;;;9.87;6.27;;;;;;;;;;6257979;28;20053;-53
2022/05/12 19:27:06;;;;;;;15.83;5.17;;;;;;;;;;6256764;28;20080;-55
2022/05/12 19:30:10;;;;;;;15.17;6.23;;;;;;;;;;6256308;28;20041;-57
2022/05/12 19:33:11;;;;;;;17.27;6.80;;;;;;;;;;6255025;28;20164;-52
2022/05/12 19:36:11;;;;;;;18.00;6.80;;;;;;;;;;6260220;28;20057;-56
2022/05/12 19:39:13;;;;;;;15.63;6.03;;;;;;;;;;6254820;28;21174;-56
2022/05/12 19:42:14;;;;;;;12.57;6.00;;;;;;;;;;6260889;28;20052;-53
2022/05/12 19:45:16;;;;;;;19.02;5.90;;;;;;;;;;6259936;28;20317;-55
2022/05/12 19:48:21;;;;;;;13.68;5.72;;;;;;;;;;6256783;28;20625;-56
2022/05/12 19:51:22;;;;;;;16.92;5.88;;;;;;;;;;6261452;28;20076;-58
2022/05/12 19:54:23;;;;;;;13.93;6.50;;;;;;;;;;6260889;28;20041;-55
2022/05/12 19:57:23;;;;;;;14.20;6.27;;;;;;;;;;6261579;28;20052;-55
2022/05/12 20:00:29;;;;;;;14.03;6.30;;;;;;;;;;6248623;28;20044;-57
2022/05/12 20:03:31;;;;;;;15.20;6.10;;;;;;;;;;6262808;28;20037;-57
2022/05/12 20:06:31;;;;;;;16.70;6.47;;;;;;;;;;6264342;28;20053;-55
2022/05/12 20:09:32;;;;;;;16.73;6.47;;;;;;;;;;6256215;28;20465;-60
2022/05/12 20:12:33;;;;;;;19.90;6.50;;;;;;;;;;6260200;28;20056;-60
2022/05/12 20:15:34;;;;;;;23.13;7.30;;;;;;;;;;6256992;28;20061;-60
2022/05/12 20:18:35;;;;;;;17.47;9.63;;;;;;;;;;6264408;28;20067;-58
2022/05/12 20:21:35;;;;;;;24.80;11.00;;;;;;;;;;6255092;28;20068;-60
2022/05/12 20:24:36;;;;;;;25.33;11.37;;;;;;;;;;6257904;28;20064;-60
2022/05/12 20:27:37;;;;;;;19.50;9.87;;;;;;;;;;6257346;28;20045;-57
2022/05/12 20:30:41;;;;;;;21.87;9.27;;;;;;;;;;6260113;28;20416;-60
2022/05/12 20:33:42;;;;;;;24.23;9.52;;;;;;;;;;6258159;28;20135;-58
2022/05/12 20:36:42;;;;;;;22.88;8.70;;;;;;;;;;6263284;28;20033;-58
2022/05/12 20:39:43;;;;;;;21.70;9.13;;;;;;;;;;6264425;28;20033;-58
2022/05/12 20:42:44;;;;;;;21.85;9.25;;;;;;;;;;6256266;28;20097;-56
2022/05/12 20:45:59;;;;;;;21.30;9.10;;;;;;;;;;6262036;28;20579;-59
2022/05/12 20:49:03;;;;;;;20.90;9.55;;;;;;;;;;6259152;28;20068;-56
2022/05/12 20:52:04;;;;;;;20.40;9.13;;;;;;;;;;6259072;28;20581;-60
2022/05/12 20:55:05;;;;;;;21.10;9.65;;;;;;;;;;6266140;28;20132;-60
2022/05/12 20:58:05;;;;;;;20.92;9.25;;;;;;;;;;6257624;28;20056;-54
2022/05/12 21:01:06;;;;;;;19.02;8.65;;;;;;;;;;6265263;28;20131;-59
2022/05/12 21:04:09;;;;;;;20.25;8.85;;;;;;;;;;6257644;28;20041;-60
2022/05/12 21:07:10;;;;;;;14.80;8.02;;;;;;;;;;6261889;28;20531;-58
2022/05/12 21:10:13;;;;;;;23.10;9.48;;;;;;;;;;6259859;28;20053;-59
2022/05/12 21:13:14;;;;;;;21.25;9.07;;;;;;;;;;6257252;28;20079;-59
2022/05/12 21:16:16;;;;;;;17.60;8.90;;;;;;;;;;6263206;28;20049;-58